M I D A S
Marine Information and Data Acquisition System
Tripno 229 of the Zeeleeuw from 2002-03-25 07:38:32 to 2002-03-25 15:12:41
Back to CruiseResearch ActivitiesStationsMapUnderway DataData graphs

EquipmentUnitsComment
TimeDGPSUTC
LatitudeDGPSDM.mWGS84
LongitudeDGPSDM.mWGS84
HeadingGyrodeg 
SOGDGPSknotsSpeed over ground
COGDGPSdegCourse over ground
DepthEcho soundermeters200 kHz
Missing or incorrect values are displayed as -999
Navigation data collected by the RV Zeeleeuw from 2002-03-25 07:38:32 to 2002-03-25 15:12:41
                                                                                    Next 1000 lines
Time Latitude Longitude Heading SOG COG Depth
2002-03-25 07:38:40 51°13.694 2°55.734 26.3 2.5 19.8 14.3
2002-03-25 07:38:45 51°13.698 2°55.735 16.7 3 14.1 14.6
2002-03-25 07:38:50 51°13.704 2°55.734 5.8 3.7 3.3 13.8
2002-03-25 07:38:55 51°13.711 2°55.733 356.8 4.2 356.8 13.2
2002-03-25 07:39:00 51°13.718 2°55.729 348.2 4.9 347 12.1
2002-03-25 07:39:05 51°13.726 2°55.725 341.5 5.5 340.6 11.9
2002-03-25 07:39:10 51°13.734 2°55.718 336.5 6.1 335.1 11.8
2002-03-25 07:39:15 51°13.742 2°55.711 334.3 6.5 333 11.9
2002-03-25 07:39:20 51°13.751 2°55.703 333.5 7.1 331.3 11.8
2002-03-25 07:39:25 51°13.761 2°55.695 333.8 7.5 331.4 12
2002-03-25 07:39:29 51°13.769 2°55.688 333.3 7.9 331 11.8
2002-03-25 07:39:35 51°13.781 2°55.677 333.7 8.1 331 11.7
2002-03-25 07:39:40 51°13.791 2°55.668 334.2 8.4 331.1 11.9
2002-03-25 07:39:45 51°13.802 2°55.659 334.8 8.6 331.7 11.8
2002-03-25 07:39:50 51°13.813 2°55.65 334.7 8.8 332 11.8
2002-03-25 07:39:55 51°13.824 2°55.641 334.8 9 332.3 11.8
2002-03-25 07:40:00 51°13.835 2°55.631 334.8 9.1 332.5 11.8
2002-03-25 07:40:06 51°13.849 2°55.62 335 9.2 332.6 11.8
2002-03-25 07:40:11 51°13.861 2°55.61 335 9.4 332.8 11.5
2002-03-25 07:40:15 51°13.87 2°55.603 335.3 9.4 332.9 11.5
2002-03-25 07:40:20 51°13.882 2°55.593 335.3 9.5 333.3 11.4
2002-03-25 07:40:26 51°13.896 2°55.582 336.2 9.6 333.5 11.4
2002-03-25 07:40:30 51°13.906 2°55.575 337 9.7 334.2 11.5
2002-03-25 07:40:36 51°13.921 2°55.563 337 9.7 334.4 11.5
2002-03-25 07:40:41 51°13.933 2°55.554 337.5 9.8 334.4 11.6
2002-03-25 07:40:45 51°13.943 2°55.547 338.5 9.8 334.7 11.6
2002-03-25 07:40:50 51°13.955 2°55.537 338.3 9.8 335.2 11.5
2002-03-25 07:40:55 51°13.967 2°55.528 338.2 9.8 335.1 11.5
2002-03-25 07:41:00 51°13.98 2°55.52 339.3 9.8 335.8 11.5
2002-03-25 07:41:05 51°13.992 2°55.511 339.5 9.8 336.6 11.5
2002-03-25 07:41:10 51°14.005 2°55.502 338.8 9.8 336.6 11.5
2002-03-25 07:41:16 51°14.02 2°55.492 339.5 9.9 336.8 11.5
2002-03-25 07:41:21 51°14.032 2°55.484 340 9.9 337.1 11.5
2002-03-25 07:41:25 51°14.042 2°55.477 339.7 9.8 337.1 11.5
2002-03-25 07:41:30 51°14.055 2°55.468 339.3 9.9 336.8 11.5
2002-03-25 07:41:36 51°14.07 2°55.457 338.7 9.9 336.4 11.5
2002-03-25 07:41:41 51°14.082 2°55.448 338.2 9.9 335.8 11.6
2002-03-25 07:41:46 51°14.094 2°55.439 337.3 9.8 335.2 11.6
2002-03-25 07:41:51 51°14.106 2°55.429 336.7 9.8 334.3 11.6
2002-03-25 07:41:55 51°14.116 2°55.421 336.3 9.8 333.8 11.6
2002-03-25 07:42:00 51°14.128 2°55.412 335.8 9.8 333.3 11.6
2002-03-25 07:42:05 51°14.141 2°55.402 334.5 9.8 332.6 11.6
2002-03-25 07:42:11 51°14.155 2°55.389 333.3 9.7 331.4 11.6
2002-03-25 07:42:16 51°14.167 2°55.378 332.2 9.7 330.3 11.7
2002-03-25 07:42:20 51°14.176 2°55.369 331.2 9.7 328.7 11.7
2002-03-25 07:42:25 51°14.187 2°55.358 329.8 9.7 327.7 11.7
2002-03-25 07:42:30 51°14.198 2°55.345 328 9.7 326.2 11.7
2002-03-25 07:42:35 51°14.209 2°55.333 327.2 9.7 325.2 11.7
2002-03-25 07:42:40 51°14.22 2°55.32 326.7 9.7 324.1 11.7
2002-03-25 07:42:45 51°14.23 2°55.307 325 9.7 323.2 11.7
2002-03-25 07:42:50 51°14.241 2°55.293 322 9.7 320.4 11.7
2002-03-25 07:42:56 51°14.252 2°55.275 319.7 9.7 318.4 11.7
2002-03-25 07:43:00 51°14.26 2°55.263 318.5 9.7 316.2 11.7
2002-03-25 07:43:05 51°14.269 2°55.248 316.8 9.7 314.9 11.7
2002-03-25 07:43:09 51°14.276 2°55.235 314.5 9.7 312.5 11.7
2002-03-25 07:43:15 51°14.286 2°55.215 312.7 9.7 311 11.6
2002-03-25 07:43:20 51°14.295 2°55.199 312.2 9.7 309.7 11.6
2002-03-25 07:43:25 51°14.304 2°55.182 312 9.7 309.4 11.6
2002-03-25 07:43:31 51°14.314 2°55.162 311.8 9.7 309.1 11.6
2002-03-25 07:43:35 51°14.321 2°55.149 312 9.8 309.1 11.5
2002-03-25 07:43:40 51°14.329 2°55.132 312.7 9.7 309.3 11.5
2002-03-25 07:43:45 51°14.338 2°55.116 313 9.7 310.2 11.5
2002-03-25 07:43:50 51°14.347 2°55.1 314.5 9.8 311.2 11.5
2002-03-25 07:43:55 51°14.357 2°55.085 318 9.8 312.6 11.6
2002-03-25 07:44:00 51°14.367 2°55.07 320.3 9.9 317.4 11.9
2002-03-25 07:44:06 51°14.382 2°55.053 323.3 10.5 322.2 11.6
2002-03-25 07:44:11 51°14.395 2°55.04 326.5 10.9 325.3 11.6
2002-03-25 07:44:16 51°14.409 2°55.026 326.8 11.4 327.5 11.6
2002-03-25 07:44:20 51°14.42 2°55.016 327.2 11.5 328 11.6
2002-03-25 07:44:25 51°14.434 2°55.002 326.8 11.7 328.2 11.3
2002-03-25 07:44:30 51°14.448 2°54.988 326.3 11.8 327.9 11.3
2002-03-25 07:44:35 51°14.461 2°54.974 325.8 11.8 327.7 11.4
2002-03-25 07:44:41 51°14.478 2°54.957 325.7 11.8 327.7 11.2
2002-03-25 07:44:46 51°14.492 2°54.944 325.5 11.8 327.8 11.2
2002-03-25 07:44:51 51°14.506 2°54.93 325 11.8 327.8 11.3
2002-03-25 07:44:55 51°14.517 2°54.918 324.7 11.8 327.3 11.3
2002-03-25 07:45:00 51°14.53 2°54.904 324.2 11.8 326.8 11.3
2002-03-25 07:45:05 51°14.544 2°54.889 323.3 11.8 326.3 11.2
2002-03-25 07:45:11 51°14.56 2°54.872 323.3 11.8 325.8 11.2
2002-03-25 07:45:16 51°14.574 2°54.857 323.8 11.8 326.1 11.2
2002-03-25 07:45:20 51°14.585 2°54.846 324.7 11.9 326.9 11.1
2002-03-25 07:45:26 51°14.602 2°54.829 325.7 11.9 327.6 11.1
2002-03-25 07:45:30 51°14.613 2°54.818 326.3 11.9 328.1 11
2002-03-25 07:45:35 51°14.627 2°54.804 325.3 12 328 11
2002-03-25 07:45:41 51°14.643 2°54.786 323.7 11.9 326.5 11.1
2002-03-25 07:45:45 51°14.654 2°54.773 321.8 11.9 326.5 11.1
2002-03-25 07:45:51 51°14.67 2°54.754 320.5 12 323.4 11.1
2002-03-25 07:45:55 51°14.68 2°54.74 318.8 12 321.8 11
2002-03-25 07:46:00 51°14.693 2°54.723 317.7 12 320.5 11
2002-03-25 07:46:05 51°14.705 2°54.706 316.5 12.1 319.7 11
2002-03-25 07:46:10 51°14.718 2°54.688 316.8 12.1 319.2 11.1
2002-03-25 07:46:15 51°14.731 2°54.671 318.3 12.2 319.8 11.1
2002-03-25 07:46:20 51°14.745 2°54.654 320.3 12.2 321.3 11.1
2002-03-25 07:46:26 51°14.761 2°54.635 322.2 12.3 322.8 11.1
2002-03-25 07:46:31 51°14.775 2°54.619 322.2 12.4 323.8 11
2002-03-25 07:46:36 51°14.79 2°54.603 322 12.4 324 11
2002-03-25 07:46:40 51°14.801 2°54.589 321.2 12.5 323.3 11.1
2002-03-25 07:46:45 51°14.815 2°54.573 321.2 12.5 323.1 11.1
2002-03-25 07:46:49 51°14.826 2°54.559 321.3 12.6 322.7 11.1
2002-03-25 07:46:56 51°14.845 2°54.536 321.3 12.6 322.9 11.1
2002-03-25 07:47:00 51°14.856 2°54.522 320.3 12.7 322.3 11
2002-03-25 07:47:06 51°14.873 2°54.501 320.5 12.7 322.1 11.1
2002-03-25 07:47:11 51°14.887 2°54.483 319.7 12.8 321.9 10.8
2002-03-25 07:47:15 51°14.899 2°54.469 320.5 13 321.6 10.8
2002-03-25 07:47:20 51°14.913 2°54.45 319.7 13.1 321.3 10.6
2002-03-25 07:47:25 51°14.927 2°54.433 320.7 13.1 321.6 10.8
2002-03-25 07:47:31 51°14.944 2°54.41 319.3 13.2 320.9 10.4
2002-03-25 07:47:35 51°14.956 2°54.397 321 13.2 321.7 10.3
2002-03-25 07:47:41 51°14.973 2°54.373 319.5 13.3 321 10.2
2002-03-25 07:47:45 51°14.986 2°54.36 321.8 13.4 321.9 10.2
2002-03-25 07:47:51 51°15.003 2°54.337 320.8 13.4 322.3 10.1
2002-03-25 07:47:56 51°15.019 2°54.321 322.7 13.5 324.2 10.1
2002-03-25 07:48:01 51°15.033 2°54.303 322.8 13.5 324 10.1
2002-03-25 07:48:06 51°15.05 2°54.288 324.7 13.5 324 10.1
2002-03-25 07:48:11 51°15.065 2°54.27 325.8 13.6 326.8 10.2
2002-03-25 07:48:16 51°15.082 2°54.256 327.2 13.6 327.1 10.2
2002-03-25 07:48:20 51°15.095 2°54.243 328.7 13.7 329.2 10.3
2002-03-25 07:48:26 51°15.115 2°54.227 330.3 13.7 329.8 10.2
2002-03-25 07:48:30 51°15.129 2°54.214 331 13.7 331.7 10.5
2002-03-25 07:48:35 51°15.145 2°54.201 332 13.7 331.6 10.5
2002-03-25 07:48:40 51°15.163 2°54.186 331.8 13.8 332.9 10.6
2002-03-25 07:48:45 51°15.18 2°54.173 332.2 13.8 331.9 10.6
2002-03-25 07:48:50 51°15.197 2°54.158 332 13.8 333.1 10.6
2002-03-25 07:48:55 51°15.214 2°54.144 332 13.8 332 10.6
2002-03-25 07:49:00 51°15.231 2°54.131 332.7 13.8 333.5 10.7
2002-03-25 07:49:05 51°15.248 2°54.116 331.3 13.8 331.9 10.8
2002-03-25 07:49:11 51°15.268 2°54.099 332.3 13.8 333.3 10.9
2002-03-25 07:49:16 51°15.285 2°54.085 330.5 13.7 331.2 10.9
2002-03-25 07:49:21 51°15.302 2°54.071 332 13.8 332.6 11
2002-03-25 07:49:25 51°15.315 2°54.058 329.7 13.8 330.5 11.1
2002-03-25 07:49:31 51°15.335 2°54.042 331.7 13.8 332.2 11.1
2002-03-25 07:49:35 51°15.348 2°54.029 329.2 13.8 330.2 11.2
2002-03-25 07:49:40 51°15.365 2°54.015 331.3 13.8 331.8 11.3
2002-03-25 07:49:45 51°15.381 2°53.999 328.8 13.7 330 11.3
2002-03-25 07:49:51 51°15.402 2°53.983 331.5 13.7 331.4 11.4
2002-03-25 07:49:55 51°15.414 2°53.969 329 13.7 330.1 11.4
2002-03-25 07:50:00 51°15.432 2°53.956 331.2 13.7 331.3 11.5
2002-03-25 07:50:05 51°15.447 2°53.939 328.2 13.7 329.8 11.5
2002-03-25 07:50:09 51°15.461 2°53.928 330 13.7 330.2 11.6
2002-03-25 07:50:15 51°15.48 2°53.908 327.8 13.7 329.4 11.6
2002-03-25 07:50:20 51°15.496 2°53.894 329.8 13.7 329.8 11.8
2002-03-25 07:50:25 51°15.512 2°53.877 327.5 13.7 329.4 11.8
2002-03-25 07:50:31 51°15.532 2°53.86 329.2 13.7 329.2 11.9
2002-03-25 07:50:35 51°15.545 2°53.846 327.8 13.7 329.5 12
2002-03-25 07:50:40 51°15.562 2°53.832 329 13.7 328.1 12.1
2002-03-25 07:50:45 51°15.578 2°53.816 328 13.7 330 12.2
2002-03-25 07:50:50 51°15.594 2°53.8 328.8 13.7 329 12.2
2002-03-25 07:50:55 51°15.611 2°53.785 329 13.8 330 12.3
2002-03-25 07:51:00 51°15.627 2°53.77 329.7 13.7 329.5 12.4
2002-03-25 07:51:05 51°15.644 2°53.755 329.8 13.8 331 12.4
2002-03-25 07:51:10 51°15.66 2°53.739 329 13.7 329.3 12.5
2002-03-25 07:51:15 51°15.677 2°53.725 330.7 13.8 331 12.6
2002-03-25 07:51:20 51°15.694 2°53.709 330 13.8 330.2 12.6
2002-03-25 07:51:25 51°15.711 2°53.696 332.7 13.8 332.5 12.7
2002-03-25 07:51:30 51°15.727 2°53.681 331.3 13.8 331.6 12.8
2002-03-25 07:51:35 51°15.745 2°53.669 334.2 13.8 333.8 12.8
2002-03-25 07:51:40 51°15.761 2°53.653 331.5 13.8 332.2 12.9
2002-03-25 07:51:45 51°15.779 2°53.641 334 13.8 334 12.9
2002-03-25 07:51:49 51°15.792 2°53.628 331.2 13.8 332.2 13
2002-03-25 07:51:56 51°15.817 2°53.61 333.8 13.8 333.6 13
2002-03-25 07:52:00 51°15.83 2°53.597 331.2 13.8 332.2 13
2002-03-25 07:52:06 51°15.851 2°53.583 333.5 13.8 333 13.1
2002-03-25 07:52:10 51°15.864 2°53.569 331 13.8 332.1 13.1
2002-03-25 07:52:15 51°15.881 2°53.557 332.8 13.8 332.2 13.2
2002-03-25 07:52:20 51°15.897 2°53.541 330.8 13.8 332.2 13.2
2002-03-25 07:52:25 51°15.915 2°53.528 331.8 13.8 331.5 13.2
2002-03-25 07:52:31 51°15.935 2°53.51 331.5 13.8 332.4 13.3
2002-03-25 07:52:36 51°15.952 2°53.497 331.7 13.7 332.1 13.3
2002-03-25 07:52:40 51°15.965 2°53.485 332 13.8 332.9 13.4
2002-03-25 07:52:45 51°15.982 2°53.471 331.3 13.8 331.3 13.4
2002-03-25 07:52:51 51°16.002 2°53.454 332 13.8 332.8 13.4
2002-03-25 07:52:56 51°16.019 2°53.44 330.8 13.8 331.2 13.5
2002-03-25 07:53:00 51°16.033 2°53.429 332.8 13.8 333 13.5
2002-03-25 07:53:05 51°16.049 2°53.413 330.3 13.8 331 13.5
2002-03-25 07:53:10 51°16.067 2°53.401 333 13.8 333 13.5
2002-03-25 07:53:15 51°16.083 2°53.384 330 13.8 332.2 13.6
2002-03-25 07:53:20 51°16.1 2°53.372 332.7 13.8 332.8 13.7
2002-03-25 07:53:25 51°16.116 2°53.356 330.2 13.7 331.3 13.7
2002-03-25 07:53:31 51°16.137 2°53.341 333 13.8 332.9 13.8
2002-03-25 07:53:35 51°16.15 2°53.328 330.7 13.8 331.8 13.8
2002-03-25 07:53:40 51°16.168 2°53.316 333.3 13.8 333.1 13.8
2002-03-25 07:53:45 51°16.184 2°53.3 330.8 13.8 332.4 13.8
2002-03-25 07:53:50 51°16.201 2°53.287 333 13.8 332.9 13.9
2002-03-25 07:53:56 51°16.222 2°53.269 332 13.8 332.4 13.9
2002-03-25 07:54:01 51°16.239 2°53.258 333.7 13.8 333.8 13.9
2002-03-25 07:54:06 51°16.256 2°53.243 333.5 13.8 334.7 14
2002-03-25 07:54:10 51°16.27 2°53.233 334.3 13.8 334.4 14
2002-03-25 07:54:16 51°16.291 2°53.217 334.7 13.8 335.7 14
2002-03-25 07:54:20 51°16.305 2°53.208 334.8 13.8 334.9 14
2002-03-25 07:54:25 51°16.323 2°53.196 336 13.9 336.8 14
2002-03-25 07:54:31 51°16.343 2°53.18 334.7 13.9 335 14
2002-03-25 07:54:36 51°16.361 2°53.168 336.5 13.9 336.2 14
2002-03-25 07:54:41 51°16.378 2°53.155 334.3 13.8 334.9 14
2002-03-25 07:54:46 51°16.396 2°53.143 337.2 13.8 335.9 14
2002-03-25 07:54:50 51°16.41 2°53.132 334 13.8 334.8 14
2002-03-25 07:54:55 51°16.428 2°53.121 336.7 13.8 336.4 13.9
2002-03-25 07:55:01 51°16.448 2°53.104 334.2 13.7 334.8 13.9
2002-03-25 07:55:06 51°16.466 2°53.094 336.7 13.7 336.2 13.9
2002-03-25 07:55:11 51°16.482 2°53.079 333.8 13.7 334.9 13.8
2002-03-25 07:55:15 51°16.497 2°53.071 336.3 13.7 334.7 13.8
2002-03-25 07:55:20 51°16.513 2°53.057 334 13.7 335.1 13.7
2002-03-25 07:55:25 51°16.531 2°53.046 336 13.6 335.4 13.6
2002-03-25 07:55:30 51°16.548 2°53.033 333.8 13.6 335.2 13.5
2002-03-25 07:55:35 51°16.565 2°53.021 335.3 13.6 334.7 13.5
2002-03-25 07:55:40 51°16.582 2°53.008 334 13.6 335.4 13.4
2002-03-25 07:55:45 51°16.599 2°52.995 335 13.6 334.5 13.3
2002-03-25 07:55:51 51°16.62 2°52.98 335 13.6 336 13.2
2002-03-25 07:55:55 51°16.633 2°52.97 334.5 13.5 334.6 13.2
2002-03-25 07:56:01 51°16.654 2°52.956 335.7 13.6 336.4 13.2
2002-03-25 07:56:06 51°16.671 2°52.943 333.7 13.5 334.5 13
2002-03-25 07:56:11 51°16.688 2°52.931 336.2 13.5 336.3 12.9
2002-03-25 07:56:15 51°16.701 2°52.92 333.5 13.5 334.2 12.8
2002-03-25 07:56:20 51°16.719 2°52.91 336.3 13.5 336.5 12.6
2002-03-25 07:56:25 51°16.735 2°52.895 333.5 13.5 334.7 12.5
2002-03-25 07:56:29 51°16.749 2°52.887 336.3 13.5 336.7 12.3
2002-03-25 07:56:36 51°16.773 2°52.868 333.8 13.5 335.4 11.9
2002-03-25 07:56:40 51°16.787 2°52.861 336.8 13.5 335.8 11.3
2002-03-25 07:56:45 51°16.804 2°52.847 334 13.5 335.9 11
2002-03-25 07:56:50 51°16.821 2°52.836 336.5 13.4 336.6 11.2
2002-03-25 07:56:55 51°16.838 2°52.823 334.2 13.4 336.2 11.1
2002-03-25 07:57:01 51°16.858 2°52.81 335.7 13.4 336 11.1
2002-03-25 07:57:05 51°16.872 2°52.798 334.2 13.4 336.1 11
2002-03-25 07:57:10 51°16.888 2°52.786 334.7 13.4 335.2 10.9
2002-03-25 07:57:16 51°16.908 2°52.77 334.2 13.5 334.5 10.9
2002-03-25 07:57:21 51°16.926 2°52.758 333.3 13.5 334.3 11.1
2002-03-25 07:57:25 51°16.939 2°52.748 334 13.5 335.5 11.3
2002-03-25 07:57:31 51°16.959 2°52.733 333.3 13.5 334.1 11.3
2002-03-25 07:57:36 51°16.976 2°52.72 334.3 13.5 335.7 11.4
2002-03-25 07:57:40 51°16.99 2°52.709 333 13.5 333.8 11.5
2002-03-25 07:57:46 51°17.011 2°52.695 335.5 13.6 335.8 11.7
2002-03-25 07:57:50 51°17.024 2°52.684 333.3 13.6 334.2 12
2002-03-25 07:57:56 51°17.045 2°52.67 336 13.6 336.2 12
2002-03-25 07:58:01 51°17.062 2°52.656 333.3 13.7 334.5 11.8
2002-03-25 07:58:05 51°17.076 2°52.648 336.2 13.7 336.2 11.4
2002-03-25 07:58:11 51°17.096 2°52.631 333.8 13.6 334.6 11.2
2002-03-25 07:58:16 51°17.114 2°52.62 336.5 13.6 336.3 11.2
2002-03-25 07:58:20 51°17.127 2°52.609 333.3 13.5 334.7 11.4
2002-03-25 07:58:26 51°17.148 2°52.596 336 13.5 335.7 11.3
2002-03-25 07:58:30 51°17.161 2°52.584 333.5 13.6 334.7 11.3
2002-03-25 07:58:35 51°17.179 2°52.573 335.7 13.6 335.4 11.5
2002-03-25 07:58:40 51°17.196 2°52.559 333.5 13.6 334.6 11.5
2002-03-25 07:58:45 51°17.213 2°52.548 336.2 13.6 335.3 11.6
2002-03-25 07:58:50 51°17.23 2°52.534 333.5 13.6 335.1 11.5
2002-03-25 07:58:55 51°17.247 2°52.522 335.3 13.6 334.8 11.6
2002-03-25 07:59:00 51°17.264 2°52.509 334.5 13.6 336.2 11.7
2002-03-25 07:59:05 51°17.281 2°52.497 335.2 13.6 334.8 11.7
2002-03-25 07:59:10 51°17.299 2°52.484 334.5 13.6 335.8 11.8
2002-03-25 07:59:16 51°17.319 2°52.47 334.8 13.6 334.6 11.9
2002-03-25 07:59:21 51°17.337 2°52.456 334.8 13.7 335.9 11.8
2002-03-25 07:59:25 51°17.35 2°52.446 333.7 13.6 334 12
2002-03-25 07:59:31 51°17.371 2°52.431 335.2 13.6 335.6 11.9
2002-03-25 07:59:36 51°17.388 2°52.418 333.5 13.6 334 12
2002-03-25 07:59:40 51°17.402 2°52.409 335.3 13.6 335.4 12
2002-03-25 07:59:46 51°17.421 2°52.391 332 13.5 333.2 12.1
2002-03-25 07:59:50 51°17.433 2°52.379 328.5 13.4 330.3 12
2002-03-25 07:59:56 51°17.45 2°52.356 321.8 13.2 323.2 12
2002-03-25 08:00:00 51°17.46 2°52.34 315.7 13.1 318.3 12
2002-03-25 08:00:05 51°17.471 2°52.317 309.5 13 313 11.9
2002-03-25 08:00:10 51°17.482 2°52.294 306.5 12.9 308 12
2002-03-25 08:00:15 51°17.492 2°52.271 304.7 13 305.8 12.3
2002-03-25 08:00:20 51°17.502 2°52.247 304.2 13 304.9 12.2
2002-03-25 08:00:25 51°17.512 2°52.223 303.5 13.1 304.4 12.1
2002-03-25 08:00:31 51°17.524 2°52.194 302.8 13.1 303.7 12.2
2002-03-25 08:00:35 51°17.532 2°52.174 302.3 13.1 303.1 12.3
2002-03-25 08:00:40 51°17.542 2°52.15 302.2 13.2 302.7 12.2
2002-03-25 08:00:45 51°17.552 2°52.125 301.8 13.2 302.6 12.1
2002-03-25 08:00:50 51°17.562 2°52.1 301.7 13.2 302.5 12.3
2002-03-25 08:00:56 51°17.574 2°52.07 301.5 13.2 302.5 12.3
2002-03-25 08:01:01 51°17.583 2°52.045 301.3 13.2 302.1 12.3
2002-03-25 08:01:05 51°17.591 2°52.025 301.3 13.2 301.8 12.2
2002-03-25 08:01:10 51°17.601 2°52 300.8 13.2 301.6 12.1
2002-03-25 08:01:15 51°17.611 2°51.976 301.3 13.2 301.6 12
2002-03-25 08:01:20 51°17.62 2°51.95 300.7 13.3 301.5 11.9
2002-03-25 08:01:24 51°17.628 2°51.93 301.3 13.3 301.5 12
2002-03-25 08:01:31 51°17.641 2°51.895 301 13.3 301.1 12
2002-03-25 08:01:35 51°17.649 2°51.875 301.7 13.3 301.4 12.1
2002-03-25 08:01:40 51°17.659 2°51.85 301 13.3 301.3 11.9
2002-03-25 08:01:45 51°17.669 2°51.825 301.7 13.3 301.5 11.9
2002-03-25 08:01:51 51°17.68 2°51.795 301.3 13.3 301.3 12
2002-03-25 08:01:56 51°17.69 2°51.77 301.5 13.3 301.7 11.9
2002-03-25 08:02:00 51°17.697 2°51.75 301.3 13.3 301.3 11.9
2002-03-25 08:02:05 51°17.707 2°51.725 302 13.3 301.9 11.8
2002-03-25 08:02:11 51°17.719 2°51.695 301.8 13.3 301.7 11.9
2002-03-25 08:02:16 51°17.729 2°51.67 302.3 13.3 302.2 11.9
2002-03-25 08:02:20 51°17.737 2°51.65 301.8 13.3 301.9 11.7
2002-03-25 08:02:25 51°17.747 2°51.626 301.7 13.3 302.3 11.7
2002-03-25 08:02:30 51°17.756 2°51.6 301.5 13.3 301.6 11.7
2002-03-25 08:02:35 51°17.766 2°51.575 301.8 13.3 302 11.7
2002-03-25 08:02:40 51°17.776 2°51.55 301.8 13.3 301.3 11.8
2002-03-25 08:02:45 51°17.786 2°51.526 301.5 13.3 302 11.9
2002-03-25 08:02:51 51°17.797 2°51.495 301.5 13.3 301.5 11.9
2002-03-25 08:02:55 51°17.805 2°51.475 302 13.3 302.2 11.9
2002-03-25 08:03:00 51°17.815 2°51.45 301.7 13.3 301.6 11.9
2002-03-25 08:03:06 51°17.826 2°51.42 301.8 13.3 302.1 12.1
2002-03-25 08:03:10 51°17.834 2°51.4 302 13.3 301.9 12.2
2002-03-25 08:03:15 51°17.844 2°51.375 302 13.3 302.4 12.1
2002-03-25 08:03:20 51°17.854 2°51.351 302.5 13.3 302.2 12.3
2002-03-25 08:03:25 51°17.864 2°51.325 301.7 13.3 302.1 12.3
2002-03-25 08:03:30 51°17.873 2°51.3 301.5 13.3 301.7 12.4
2002-03-25 08:03:36 51°17.885 2°51.27 301.7 13.3 302.1 12.5
2002-03-25 08:03:40 51°17.893 2°51.25 301.5 13.3 301.5 12.6
2002-03-25 08:03:46 51°17.905 2°51.22 301.5 13.3 301.8 12.7
2002-03-25 08:03:51 51°17.915 2°51.195 301.5 13.3 301.3 12.8
2002-03-25 08:03:56 51°17.925 2°51.17 301.5 13.4 301.9 12.8
2002-03-25 08:04:01 51°17.934 2°51.145 301.5 13.4 301.5 13
2002-03-25 08:04:05 51°17.942 2°51.125 301.7 13.4 302.1 13.2
2002-03-25 08:04:11 51°17.954 2°51.094 301.3 13.3 301.4 13.3
2002-03-25 08:04:15 51°17.961 2°51.074 301.3 13.4 301.9 13.4
2002-03-25 08:04:20 51°17.971 2°51.049 301.3 13.4 301.4 13.3
2002-03-25 08:04:25 51°17.981 2°51.024 301.5 13.4 301.9 13.6
2002-03-25 08:04:30 51°17.99 2°50.998 301.3 13.4 301.7 13.8
2002-03-25 08:04:36 51°18.002 2°50.968 301.7 13.4 302.1 14
2002-03-25 08:04:40 51°18.01 2°50.948 301.5 13.4 301.6 14
2002-03-25 08:04:45 51°18.02 2°50.923 301.5 13.4 302 14.2
2002-03-25 08:04:50 51°18.03 2°50.898 302.2 13.4 302 14.2
2002-03-25 08:04:56 51°18.042 2°50.868 301.8 13.4 302.2 14.2
2002-03-25 08:05:00 51°18.05 2°50.848 302.2 13.4 302.3 14.3
2002-03-25 08:05:05 51°18.059 2°50.823 301.8 13.4 302.1 14.5
2002-03-25 08:05:11 51°18.072 2°50.793 302.3 13.4 302.2 14.5
2002-03-25 08:05:15 51°18.079 2°50.772 301.7 13.4 301.9 14.6
2002-03-25 08:05:20 51°18.09 2°50.748 302.3 13.4 302.1 14.6
2002-03-25 08:05:25 51°18.099 2°50.722 301.7 13.4 301.7 14.8
2002-03-25 08:05:31 51°18.111 2°50.692 302.2 13.4 302.3 14.7
2002-03-25 08:05:36 51°18.121 2°50.667 301.5 13.4 301.7 14.9
2002-03-25 08:05:41 51°18.131 2°50.642 302.2 13.4 302.3 14.8
2002-03-25 08:05:45 51°18.138 2°50.621 301.5 13.4 301.4 14.8
2002-03-25 08:05:50 51°18.148 2°50.597 302 13.4 302.3 14.9
2002-03-25 08:05:56 51°18.159 2°50.566 301 13.4 301.2 15
2002-03-25 08:06:00 51°18.168 2°50.546 302.2 13.4 302.3 15.2
2002-03-25 08:06:06 51°18.179 2°50.515 300.8 13.4 301.1 15.2
2002-03-25 08:06:10 51°18.187 2°50.495 301.8 13.4 302.1 15.3
2002-03-25 08:06:15 51°18.196 2°50.469 300.7 13.4 300.4 15.3
2002-03-25 08:06:20 51°18.207 2°50.444 302.2 13.4 302.2 15.4
2002-03-25 08:06:25 51°18.216 2°50.418 301 13.5 301.1 15.5
2002-03-25 08:06:30 51°18.226 2°50.394 302.3 13.5 302.4 15.6
2002-03-25 08:06:35 51°18.235 2°50.367 301.2 13.5 301.5 15.5
2002-03-25 08:06:40 51°18.246 2°50.343 302.5 13.5 302.6 15.8
2002-03-25 08:06:45 51°18.255 2°50.317 301 13.5 301.6 15.9
2002-03-25 08:06:51 51°18.268 2°50.287 302.3 13.5 302.6 15.9
2002-03-25 08:06:56 51°18.276 2°50.261 301 13.5 301.7 15.8
2002-03-25 08:07:00 51°18.285 2°50.241 302.2 13.5 302.3 15.8
2002-03-25 08:07:05 51°18.295 2°50.215 301 13.5 301.9 15.9
2002-03-25 08:07:10 51°18.305 2°50.191 302.3 13.5 302.6 15.9
2002-03-25 08:07:15 51°18.314 2°50.165 301 13.5 302 15.8
2002-03-25 08:07:20 51°18.325 2°50.14 302.5 13.5 302.3 15.9
2002-03-25 08:07:26 51°18.336 2°50.109 301 13.5 301.6 15.9
2002-03-25 08:07:30 51°18.345 2°50.089 302 13.5 302.2 15.9
2002-03-25 08:07:36 51°18.356 2°50.058 300.8 13.5 302.1 15.9
2002-03-25 08:07:40 51°18.364 2°50.038 302 13.5 301.9 15.9
2002-03-25 08:07:45 51°18.374 2°50.013 300.8 13.5 302.3 15.7
2002-03-25 08:07:50 51°18.383 2°49.987 301.3 13.5 301.1 15.9
2002-03-25 08:07:55 51°18.393 2°49.962 300.8 13.5 302.2 15.4
2002-03-25 08:08:00 51°18.403 2°49.936 301.7 13.5 301.4 15.4
2002-03-25 08:08:05 51°18.413 2°49.911 301.7 13.5 302.8 15.5
2002-03-25 08:08:10 51°18.423 2°49.886 302 13.5 301.6 15.2
2002-03-25 08:08:15 51°18.433 2°49.861 302.2 13.5 302.8 15.2
2002-03-25 08:08:20 51°18.442 2°49.835 301.2 13.5 301.3 15.2
2002-03-25 08:08:25 51°18.453 2°49.81 302.2 13.5 302.7 15.2
2002-03-25 08:08:30 51°18.462 2°49.784 301.7 13.5 301.5 15
2002-03-25 08:08:35 51°18.473 2°49.76 302.2 13.5 302.9 14.6
2002-03-25 08:08:40 51°18.482 2°49.734 301.7 13.5 301.7 14.7
2002-03-25 08:08:45 51°18.493 2°49.709 302.5 13.5 303.3 14.5
2002-03-25 08:08:50 51°18.502 2°49.683 301.7 13.6 302.3 14.1
2002-03-25 08:08:55 51°18.513 2°49.659 302.7 13.5 303.1 14.2
2002-03-25 08:09:00 51°18.522 2°49.632 301.7 13.5 301.6 14.1
2002-03-25 08:09:05 51°18.533 2°49.608 302.7 13.5 302.9 14
2002-03-25 08:09:10 51°18.542 2°49.582 301.8 13.5 302 13.6
2002-03-25 08:09:15 51°18.553 2°49.558 302.5 13.5 302.8 13.4
2002-03-25 08:09:21 51°18.564 2°49.527 301.3 13.4 301.7 13
2002-03-25 08:09:25 51°18.572 2°49.507 302.5 13.4 302.6 13.2
2002-03-25 08:09:30 51°18.582 2°49.482 301.3 13.4 301.8 12.9
2002-03-25 08:09:35 51°18.592 2°49.457 302.7 13.4 302.5 13
2002-03-25 08:09:40 51°18.602 2°49.432 301.5 13.4 301.9 12.6
2002-03-25 08:09:46 51°18.614 2°49.402 302.3 13.4 302.6 12.6
2002-03-25 08:09:50 51°18.621 2°49.381 301.2 13.4 302.3 12.5
2002-03-25 08:09:55 51°18.631 2°49.357 302.2 13.3 301.9 12.2
2002-03-25 08:10:00 51°18.641 2°49.332 301.2 13.3 301.4 12.2
2002-03-25 08:10:05 51°18.651 2°49.307 302 13.3 301.7 12.3
2002-03-25 08:10:10 51°18.66 2°49.282 300.8 13.3 301.4 12.3
2002-03-25 08:10:15 51°18.67 2°49.257 302 13.2 301.6 12.6
2002-03-25 08:10:21 51°18.681 2°49.226 300.8 13.3 301.1 12.7
2002-03-25 08:10:25 51°18.69 2°49.207 301.3 13.2 301.3 12.9
2002-03-25 08:10:31 51°18.701 2°49.177 301.3 13.3 301.2 12.9
2002-03-25 08:10:35 51°18.709 2°49.157 303.3 13.3 302.2 12.9
2002-03-25 08:10:40 51°18.719 2°49.132 303 13.3 302.9 12.9
2002-03-25 08:10:45 51°18.73 2°49.109 304.7 13.3 303.8 12.7
2002-03-25 08:10:49 51°18.738 2°49.089 303.3 13.3 303.8 12.6
2002-03-25 08:10:56 51°18.753 2°49.055 304.5 13.3 304.8 12.6
2002-03-25 08:11:00 51°18.761 2°49.035 304 13.3 304.4 12.7
2002-03-25 08:11:05 51°18.772 2°49.012 305 13.2 304.2 13.1
2002-03-25 08:11:10 51°18.782 2°48.987 304 13.3 304.5 12.6
2002-03-25 08:11:15 51°18.792 2°48.963 304.8 13.2 303.9 12.7
2002-03-25 08:11:20 51°18.803 2°48.939 303.5 13.2 304.6 13.2
2002-03-25 08:11:25 51°18.812 2°48.914 303.2 13.2 302.7 13.4
2002-03-25 08:11:31 51°18.825 2°48.885 303.3 13.2 303.9 13.7
2002-03-25 08:11:35 51°18.833 2°48.865 303.2 13.2 302.4 14
2002-03-25 08:11:39 51°18.842 2°48.846 303.8 13.3 304.4 14
2002-03-25 08:11:44 51°18.851 2°48.821 303.2 13.3 302.6 14.3
2002-03-25 08:11:51 51°18.866 2°48.788 304.2 13.3 304.7 14.5
2002-03-25 08:11:56 51°18.876 2°48.763 303.5 13.3 302.9 14.7
2002-03-25 08:12:00 51°18.885 2°48.744 304.5 13.3 305.1 14.9
2002-03-25 08:12:06 51°18.896 2°48.714 302.5 13.3 303 15.4
2002-03-25 08:12:10 51°18.905 2°48.695 304.3 13.3 304.6 15.6
2002-03-25 08:12:15 51°18.914 2°48.669 302.7 13.3 302.6 15.7
2002-03-25 08:12:20 51°18.925 2°48.646 304.5 13.3 305.1 15.9
2002-03-25 08:12:24 51°18.933 2°48.626 302.7 13.3 303.2 15.9
2002-03-25 08:12:31 51°18.948 2°48.592 304.7 13.3 304.9 15.9
2002-03-25 08:12:35 51°18.955 2°48.571 302.7 13.3 303.1 16
2002-03-25 08:12:40 51°18.966 2°48.548 304 13.3 304.6 16.1
2002-03-25 08:12:45 51°18.975 2°48.522 301.8 13.3 302.7 16.2
2002-03-25 08:12:51 51°18.988 2°48.494 303.3 13.3 303.7 16.3
2002-03-25 08:12:55 51°18.995 2°48.472 301 13.3 302.1 16.6
2002-03-25 08:13:00 51°19.006 2°48.448 302.7 13.3 302.8 17
2002-03-25 08:13:06 51°19.016 2°48.417 300.7 13.3 301.2 17.3
2002-03-25 08:13:10 51°19.025 2°48.398 301.5 13.3 301.9 17.6
2002-03-25 08:13:15 51°19.033 2°48.372 299.3 13.4 300.6 17.8
2002-03-25 08:13:20 51°19.043 2°48.347 300.5 13.3 300.7 18.1
2002-03-25 08:13:25 51°19.052 2°48.321 298.7 13.3 299.9 18.3
2002-03-25 08:13:31 51°19.063 2°48.29 299.3 13.4 299.8 18.6
2002-03-25 08:13:34 51°19.069 2°48.274 298.8 13.4 299.9 18.8
2002-03-25 08:13:40 51°19.079 2°48.243 299.3 13.4 299.4 18.8
2002-03-25 08:13:44 51°19.087 2°48.223 298.8 13.4 299.9 19
2002-03-25 08:13:50 51°19.097 2°48.192 299.5 13.4 299.2 19.1
2002-03-25 08:13:56 51°19.108 2°48.161 299 13.4 299.1 19.2
2002-03-25 08:14:00 51°19.115 2°48.14 299.2 13.4 298.9 19.4
2002-03-25 08:14:05 51°19.124 2°48.114 299.2 13.4 300.2 19.5
2002-03-25 08:14:09 51°19.131 2°48.093 298.7 13.4 298.4 19.7
2002-03-25 08:14:16 51°19.144 2°48.057 299.3 13.4 300.2 19.8
2002-03-25 08:14:20 51°19.151 2°48.036 298.2 13.4 298.4 20.1
2002-03-25 08:14:25 51°19.161 2°48.011 300.2 13.4 300.3 20.2
2002-03-25 08:14:29 51°19.168 2°47.99 300 13.4 300.2 20.4
2002-03-25 08:14:36 51°19.183 2°47.956 303.2 13.4 303.1 20.4
2002-03-25 08:14:40 51°19.191 2°47.936 304 13.5 303.9 20.7
2002-03-25 08:14:46 51°19.206 2°47.908 306.8 13.5 306.2 20.9
2002-03-25 08:14:50 51°19.214 2°47.889 307.5 13.5 307.4 21.2
2002-03-25 08:14:56 51°19.229 2°47.862 309.3 13.6 309 21.4
2002-03-25 08:15:00 51°19.239 2°47.843 309.3 13.6 309.8 21.6
2002-03-25 08:15:04 51°19.249 2°47.825 310.8 13.6 310.7 21.7
2002-03-25 08:15:10 51°19.263 2°47.797 310.2 13.6 310.6 21.9
2002-03-25 08:15:14 51°19.273 2°47.779 310.8 13.6 310.9 22.1
2002-03-25 08:15:19 51°19.286 2°47.756 310.2 13.6 310.6 22.3
2002-03-25 08:15:24 51°19.298 2°47.733 311 13.6 311 22.4
2002-03-25 08:15:30 51°19.313 2°47.705 309.5 13.6 310.4 22.6
2002-03-25 08:15:36 51°19.328 2°47.679 310.5 13.6 309.9 22.8
2002-03-25 08:15:39 51°19.335 2°47.664 309.2 13.7 310 22.9
2002-03-25 08:15:44 51°19.347 2°47.64 309.3 13.6 308.9 23.1
2002-03-25 08:15:50 51°19.361 2°47.612 308.3 13.7 309.3 23.1
2002-03-25 08:15:55 51°19.372 2°47.589 307.7 13.6 307.6 23.1
2002-03-25 08:15:59 51°19.383 2°47.57 308 13.6 308.9 23.1
2002-03-25 08:16:06 51°19.398 2°47.537 307.3 13.6 307 23.2
2002-03-25 08:16:10 51°19.409 2°47.518 308.2 13.7 309 23.3
2002-03-25 08:16:14 51°19.417 2°47.498 306.8 13.7 307.2 23.4
2002-03-25 08:16:19 51°19.43 2°47.475 307.8 13.7 308.8 23.4
2002-03-25 08:16:26 51°19.445 2°47.441 306.5 13.6 307 23.4
2002-03-25 08:16:30 51°19.455 2°47.423 308.5 13.7 308.7 23.4
2002-03-25 08:16:35 51°19.466 2°47.398 305.8 13.7 307.2 23.4
2002-03-25 08:16:40 51°19.478 2°47.375 307.8 13.7 308.4 23.4
2002-03-25 08:16:44 51°19.487 2°47.355 305.8 13.7 307.5 23.4
2002-03-25 08:16:50 51°19.501 2°47.327 307.7 13.7 308.1 23.5
2002-03-25 08:16:54 51°19.511 2°47.307 306.5 13.7 308.3 23.5
2002-03-25 08:16:59 51°19.522 2°47.283 307.8 13.7 308.4 23.5
2002-03-25 08:17:04 51°19.534 2°47.26 307.3 13.7 308.9 23.4
2002-03-25 08:17:10 51°19.548 2°47.232 308.5 13.7 308.7 23.5
2002-03-25 08:17:14 51°19.558 2°47.213 307.2 13.7 309.4 23.5
2002-03-25 08:17:19 51°19.569 2°47.189 308 13.7 308.1 23.5
2002-03-25 08:17:23 51°19.58 2°47.171 307.2 13.7 309.5 23.5
2002-03-25 08:17:29 51°19.593 2°47.141 306.5 13.6 307.3 23.5
2002-03-25 08:17:35 51°19.607 2°47.113 307.2 13.7 308.6 23.6
2002-03-25 08:17:40 51°19.618 2°47.089 307.3 13.6 307.4 23.4
2002-03-25 08:17:46 51°19.633 2°47.061 308.2 13.7 309.5 23.3
2002-03-25 08:17:51 51°19.645 2°47.037 307.3 13.6 308 23.2
2002-03-25 08:17:55 51°19.655 2°47.019 308.7 13.7 309.5 23.1
2002-03-25 08:18:00 51°19.666 2°46.994 307.3 13.6 308.1 22.8
2002-03-25 08:18:04 51°19.676 2°46.976 308.3 13.6 309.4 22.8
2002-03-25 08:18:10 51°19.69 2°46.947 307.3 13.6 308.1 22.8
2002-03-25 08:18:14 51°19.7 2°46.929 309.2 13.6 309.9 22.6
2002-03-25 08:18:20 51°19.713 2°46.9 307.5 13.6 308.5 22.5
2002-03-25 08:18:25 51°19.726 2°46.878 309.3 13.6 309.5 22.5
2002-03-25 08:18:29 51°19.734 2°46.858 306.7 13.6 308 22.3
2002-03-25 08:18:36 51°19.752 2°46.826 307.8 13.7 308.1 22.1
2002-03-25 08:18:40 51°19.761 2°46.806 307.2 13.7 308.5 21.9
2002-03-25 08:18:45 51°19.772 2°46.782 307.8 13.7 307.7 21.5
2002-03-25 08:18:50 51°19.784 2°46.759 307.3 13.7 309.3 20.9
2002-03-25 08:18:55 51°19.795 2°46.735 306.8 13.6 307.6 20.3
2002-03-25 08:18:59 51°19.805 2°46.717 307.7 13.6 309.3 20
2002-03-25 08:19:05 51°19.818 2°46.688 307 13.6 307.8 19.3
2002-03-25 08:19:10 51°19.831 2°46.665 308 13.6 309.8 19.3
2002-03-25 08:19:14 51°19.84 2°46.645 306.7 13.6 308.2 20.1
2002-03-25 08:19:19 51°19.852 2°46.623 308.8 13.6 310.1 20.3
2002-03-25 08:19:25 51°19.866 2°46.594 306.3 13.6 308.4 20.1
2002-03-25 08:19:30 51°19.879 2°46.572 308.8 13.6 309.6 19.3
2002-03-25 08:19:35 51°19.89 2°46.547 306.7 13.6 307.5 18.6
2002-03-25 08:19:39 51°19.899 2°46.529 308 13.5 308.9 19.1
2002-03-25 08:19:44 51°19.911 2°46.505 306.7 13.5 307.7 18.3
2002-03-25 08:19:50 51°19.925 2°46.478 308.8 13.4 308.9 16.8
2002-03-25 08:19:54 51°19.934 2°46.458 307 13.4 307.8 17.4
2002-03-25 08:19:59 51°19.945 2°46.436 308.5 13.3 309 15.6
2002-03-25 08:20:04 51°19.956 2°46.412 307.5 13.2 307.9 16.9
2002-03-25 08:20:09 51°19.968 2°46.39 309 13.2 309.6 17.7
2002-03-25 08:20:15 51°19.981 2°46.362 307 13.2 308 17.7
2002-03-25 08:20:19 51°19.991 2°46.344 308.8 13.2 309 17.4
2002-03-25 08:20:24 51°20.002 2°46.321 307 13.2 308.1 17.1
2002-03-25 08:20:29 51°20.013 2°46.298 309 13.1 308.4 16.4
2002-03-25 08:20:35 51°20.025 2°46.27 306.2 13.1 308.1 14.6
2002-03-25 08:20:40 51°20.035 2°46.246 303.2 13 304.6 15.9
2002-03-25 08:20:44 51°20.042 2°46.226 299.5 12.9 302.1 15.2
2002-03-25 08:20:49 51°20.05 2°46.201 297 12.8 297.4 15.2
2002-03-25 08:20:55 51°20.059 2°46.17 294 12.8 296 16.6
2002-03-25 08:20:59 51°20.064 2°46.149 292.7 12.8 292.7 15.4
2002-03-25 08:21:06 51°20.073 2°46.112 290.5 12.8 292.1 15.5
2002-03-25 08:21:10 51°20.078 2°46.091 289.8 12.8 289.8 16.5
2002-03-25 08:21:15 51°20.084 2°46.065 288.2 12.7 289.9 16.8
2002-03-25 08:21:20 51°20.089 2°46.037 286.2 12.7 286.7 17.2
2002-03-25 08:21:26 51°20.094 2°46.005 285.5 12.8 286.4 17.8
2002-03-25 08:21:30 51°20.097 2°45.982 284 12.8 284.2 16.7
2002-03-25 08:21:34 51°20.101 2°45.961 284.2 12.8 284.5 16.2
2002-03-25 08:21:39 51°20.104 2°45.933 282.7 12.8 282.4 16.2
2002-03-25 08:21:44 51°20.107 2°45.905 281.5 12.7 282.2 15.9
2002-03-25 08:21:48 51°20.11 2°45.883 280.7 12.7 281 16.4
2002-03-25 08:21:55 51°20.115 2°45.844 281 12.7 281 17.2
2002-03-25 08:21:59 51°20.117 2°45.822 280.3 12.7 280.3 17.8
2002-03-25 08:22:04 51°20.121 2°45.794 281 12.8 280.6 18.3
2002-03-25 08:22:09 51°20.124 2°45.766 281 12.8 280.5 18.6
2002-03-25 08:22:15 51°20.129 2°45.733 281.8 12.9 281.3 18.9
2002-03-25 08:22:19 51°20.131 2°45.71 282.2 12.9 281.6 16
2002-03-25 08:22:25 51°20.136 2°45.677 282.3 12.9 282.1 16.2
2002-03-25 08:22:30 51°20.14 2°45.65 282.8 12.8 282.6 19.4
2002-03-25 08:22:34 51°20.143 2°45.627 282.8 12.8 282.9 21.1
2002-03-25 08:22:39 51°20.148 2°45.6 283.3 12.9 283.7 21.9
2002-03-25 08:22:44 51°20.152 2°45.572 283.7 13 283.7 22.6
2002-03-25 08:22:50 51°20.158 2°45.539 284.2 13 284.6 23
2002-03-25 08:22:55 51°20.162 2°45.511 283.8 13 284.1 23.4
2002-03-25 08:22:59 51°20.166 2°45.488 283.8 13 284.4 23.8
2002-03-25 08:23:04 51°20.17 2°45.46 283.8 13.1 283.9 24
2002-03-25 08:23:09 51°20.175 2°45.432 283.7 13.1 284.2 24.3
2002-03-25 08:23:15 51°20.18 2°45.399 284 13.1 283.7 24.3
2002-03-25 08:23:19 51°20.184 2°45.377 283.8 13.1 284.1 24.4
2002-03-25 08:23:26 51°20.19 2°45.337 283.7 13.1 283.6 24.5
2002-03-25 08:23:30 51°20.194 2°45.315 283.7 13.1 284.3 24.8
2002-03-25 08:23:35 51°20.199 2°45.287 283.5 13.1 283.8 24.8
2002-03-25 08:23:41 51°20.204 2°45.253 283.7 13.1 284.3 25
2002-03-25 08:23:44 51°20.206 2°45.236 283.3 13 283.5 25
2002-03-25 08:23:50 51°20.212 2°45.203 283.7 13.1 284.2 25.1
2002-03-25 08:23:55 51°20.216 2°45.174 283.5 13 283.3 25.3
2002-03-25 08:23:59 51°20.22 2°45.152 283.8 13.1 284.3 25.4
2002-03-25 08:24:04 51°20.224 2°45.124 283.8 13.1 283.6 25.7
2002-03-25 08:24:10 51°20.23 2°45.091 283.8 13.1 284.2 25.8
2002-03-25 08:24:15 51°20.234 2°45.063 283.7 13 283.4 25.8
2002-03-25 08:24:20 51°20.238 2°45.035 283.3 13.1 283.8 26.1
2002-03-25 08:24:24 51°20.241 2°45.012 283.3 13.1 283.3 26.1
2002-03-25 08:24:31 51°20.248 2°44.973 283.8 13.1 284 26.1
2002-03-25 08:24:35 51°20.251 2°44.95 283.5 13.1 283.6 26
2002-03-25 08:24:39 51°20.255 2°44.928 283.5 13.1 284.3 26
2002-03-25 08:24:44 51°20.259 2°44.899 283.5 13.1 283.7 26.2
2002-03-25 08:24:50 51°20.265 2°44.866 283.5 13.1 284.5 26.3
2002-03-25 08:24:56 51°20.27 2°44.832 283.5 13.1 283.6 26.4
2002-03-25 08:24:59 51°20.273 2°44.815 283.5 13.2 284.4 26.2
2002-03-25 08:25:04 51°20.277 2°44.787 283.5 13.1 283.6 26.2
2002-03-25 08:25:10 51°20.283 2°44.753 283.3 13.2 283.9 26.6
2002-03-25 08:25:16 51°20.288 2°44.719 283.7 13.2 283.2 27
2002-03-25 08:25:20 51°20.292 2°44.696 283.3 13.2 283.8 27
2002-03-25 08:25:24 51°20.295 2°44.674 283.8 13.2 284.1 27
2002-03-25 08:25:30 51°20.301 2°44.64 284 13.2 284 27.1
2002-03-25 08:25:35 51°20.305 2°44.612 283.5 13.2 284 27.3
2002-03-25 08:25:39 51°20.309 2°44.589 284.2 13.2 284.1 27.5
2002-03-25 08:25:44 51°20.314 2°44.561 284 13.2 284.3 27.7
2002-03-25 08:25:50 51°20.319 2°44.527 284.2 13.2 284.2 28
2002-03-25 08:25:55 51°20.324 2°44.498 283.8 13.2 284.3 28.1
2002-03-25 08:26:00 51°20.328 2°44.47 284.2 13.2 284.4 28.3
2002-03-25 08:26:04 51°20.332 2°44.448 283.5 13.2 283.9 28.3
2002-03-25 08:26:10 51°20.338 2°44.414 283.8 13.2 284.2 28.4
2002-03-25 08:26:16 51°20.343 2°44.379 283.8 13.2 283.8 28.4
2002-03-25 08:26:20 51°20.347 2°44.357 283.3 13.2 284.2 28.4
2002-03-25 08:26:24 51°20.35 2°44.334 284.3 13.2 284.3 28.4
2002-03-25 08:26:30 51°20.357 2°44.301 284.5 13.2 285.2 28.5
2002-03-25 08:26:35 51°20.361 2°44.272 283.8 13.2 284.2 28.6
2002-03-25 08:26:40 51°20.366 2°44.244 284.3 13.2 285.1 28.8
2002-03-25 08:26:44 51°20.369 2°44.221 284 13.2 284.5 29
2002-03-25 08:26:50 51°20.375 2°44.188 283.8 13.2 284.8 29
2002-03-25 08:26:55 51°20.379 2°44.159 284 13.2 284.3 29.2
2002-03-25 08:26:59 51°20.383 2°44.136 283.8 13.2 284.6 29.2
2002-03-25 08:27:04 51°20.388 2°44.108 283.5 13.2 283.9 29.4
2002-03-25 08:27:11 51°20.394 2°44.069 283.5 13.2 284.3 29.3
2002-03-25 08:27:15 51°20.398 2°44.046 283.7 13.2 283.8 29.4
2002-03-25 08:27:19 51°20.401 2°44.023 283.3 13.2 284 29.4
2002-03-25 08:27:24 51°20.406 2°43.995 283.2 13.2 283.9 29.3
2002-03-25 08:27:30 51°20.411 2°43.961 283.7 13.2 284 29.1
2002-03-25 08:27:35 51°20.415 2°43.932 283.2 13.2 284.3 29.1
2002-03-25 08:27:40 51°20.421 2°43.904 284.2 13.2 284.7 29
2002-03-25 08:27:44 51°20.424 2°43.882 283.7 13.2 284.3 28.9
2002-03-25 08:27:50 51°20.43 2°43.848 283.5 13.2 284.7 29.2
2002-03-25 08:27:56 51°20.435 2°43.814 283.5 13.2 284.2 29.2
2002-03-25 08:27:59 51°20.438 2°43.797 283.8 13.2 284.7 29.3
2002-03-25 08:28:04 51°20.442 2°43.768 283.5 13.2 284.3 29.1
2002-03-25 08:28:11 51°20.45 2°43.729 284 13.2 284.9 29.2
2002-03-25 08:28:15 51°20.453 2°43.707 283.5 13.2 284.5 29
2002-03-25 08:28:21 51°20.459 2°43.673 284 13.2 285.1 29.2
2002-03-25 08:28:24 51°20.462 2°43.656 283.7 13.1 284.5 29.2
2002-03-25 08:28:31 51°20.469 2°43.617 284.5 13.1 285.4 28.8
2002-03-25 08:28:35 51°20.472 2°43.594 283.8 13.1 284.9 28.6
2002-03-25 08:28:39 51°20.476 2°43.572 283.7 13.2 285.2 28.4
2002-03-25 08:28:44 51°20.48 2°43.544 283 13.1 284.2 28.7
2002-03-25 08:28:50 51°20.485 2°43.51 283.7 13.1 284.3 28.7
2002-03-25 08:28:55 51°20.49 2°43.482 283.5 13.1 283.6 28.6
2002-03-25 08:28:59 51°20.493 2°43.459 282.7 13.1 283.2 28.6
2002-03-25 08:29:04 51°20.496 2°43.431 282 13.1 282.4 28.4
2002-03-25 08:29:11 51°20.502 2°43.391 282 13.1 282.4 28.2
2002-03-25 08:29:15 51°20.505 2°43.368 281.3 13.1 281.9 27.8
2002-03-25 08:29:19 51°20.508 2°43.346 281.2 13.1 281.3 27.5
2002-03-25 08:29:24 51°20.512 2°43.317 281.7 13.2 281.6 27.4
2002-03-25 08:29:30 51°20.517 2°43.283 281.3 13.1 281.5 27.6
2002-03-25 08:29:35 51°20.52 2°43.255 281.7 13.1 281.5 27.4
2002-03-25 08:29:40 51°20.524 2°43.226 281.5 13.1 281.7 27.4
2002-03-25 08:29:45 51°20.528 2°43.198 281.3 13.1 281.6 26.9
2002-03-25 08:29:51 51°20.532 2°43.164 280.8 13.1 280.9 26.2
2002-03-25 08:29:55 51°20.535 2°43.141 281.5 13.1 281.2 26.5
2002-03-25 08:30:00 51°20.538 2°43.112 281.7 13.1 281 26.5
2002-03-25 08:30:04 51°20.542 2°43.09 281.7 13.1 281.7 26.5
2002-03-25 08:30:10 51°20.546 2°43.056 281.2 13.1 281.2 26.5
2002-03-25 08:30:15 51°20.55 2°43.027 281.8 13.1 281.8 26.5
2002-03-25 08:30:19 51°20.552 2°43.005 281.3 13.1 281.2 26.3
2002-03-25 08:30:24 51°20.556 2°42.976 281.8 13.1 281.6 24
2002-03-25 08:30:30 51°20.56 2°42.942 281.3 13 281.1 24.7
2002-03-25 08:30:35 51°20.564 2°42.914 282 13 281.4 24.4
2002-03-25 08:30:40 51°20.568 2°42.886 281.8 13 281.4 24.6
2002-03-25 08:30:44 51°20.57 2°42.863 282 13 281.5 24.4
2002-03-25 08:30:50 51°20.574 2°42.83 281.3 13 280.9 20.7
2002-03-25 08:30:55 51°20.577 2°42.801 280.5 13 280.4 22.9
2002-03-25 08:30:59 51°20.58 2°42.779 279.8 12.9 279.8 24
2002-03-25 08:31:04 51°20.583 2°42.751 279.8 12.9 279.3 24.4
2002-03-25 08:31:10 51°20.586 2°42.717 279.2 12.9 278.8 23.9
2002-03-25 08:31:15 51°20.589 2°42.688 279.5 13 278.8 24.2
2002-03-25 08:31:19 51°20.591 2°42.666 279.5 12.9 278.6 22.9
2002-03-25 08:31:24 51°20.594 2°42.638 279.8 12.9 279.4 21
2002-03-25 08:31:30 51°20.597 2°42.603 279.2 12.9 278.5 22.6
2002-03-25 08:31:35 51°20.6 2°42.575 279.2 12.9 279 23
2002-03-25 08:31:40 51°20.603 2°42.547 279.7 12.9 278.9 23.3
2002-03-25 08:31:44 51°20.605 2°42.525 279.5 12.9 278.8 23.6
2002-03-25 08:31:50 51°20.609 2°42.491 279.2 12.9 278.9 23.1
2002-03-25 08:31:55 51°20.612 2°42.462 279.3 12.9 278.7 19.3
2002-03-25 08:31:59 51°20.614 2°42.44 279.5 12.9 279.1 21.2
2002-03-25 08:32:04 51°20.617 2°42.412 279.8 12.9 279.3 21.9
2002-03-25 08:32:10 51°20.62 2°42.378 279.7 12.8 279.2 21.2
2002-03-25 08:32:15 51°20.623 2°42.35 279.5 12.8 278.9 21.3
2002-03-25 08:32:19 51°20.625 2°42.328 279.3 12.8 279 21
2002-03-25 08:32:24 51°20.628 2°42.3 279.2 12.8 278.9 19.6
2002-03-25 08:32:28 51°20.63 2°42.278 279.3 12.8 279 19.9
2002-03-25 08:32:35 51°20.634 2°42.239 279.3 12.8 279 21
2002-03-25 08:32:39 51°20.637 2°42.216 279.3 12.8 278.9 20.8
2002-03-25 08:32:44 51°20.64 2°42.188 279.5 12.8 279.1 20.2
2002-03-25 08:32:49 51°20.642 2°42.16 279.8 12.8 279.3 20.7
2002-03-25 08:32:55 51°20.646 2°42.127 280.2 12.8 279.4 20.3
2002-03-25 08:32:59 51°20.649 2°42.105 280.2 12.8 280 20.3
2002-03-25 08:33:04 51°20.652 2°42.077 280.2 12.7 279.5 20.7
2002-03-25 08:33:10 51°20.655 2°42.044 279.7 12.7 279.3 21.3
2002-03-25 08:33:15 51°20.658 2°42.016 280 12.7 279.4 22.2
2002-03-25 08:33:19 51°20.66 2°41.994 279.8 12.7 279 23
2002-03-25 08:33:24 51°20.663 2°41.966 280.2 12.7 279.3 20.4
2002-03-25 08:33:29 51°20.666 2°41.938 279.5 12.7 279 19.4
2002-03-25 08:33:35 51°20.669 2°41.905 279.7 12.8 279 19.4
2002-03-25 08:33:39 51°20.672 2°41.883 279.3 12.7 279.2 20.4
2002-03-25 08:33:44 51°20.674 2°41.855 279.3 12.7 279.1 21.5
2002-03-25 08:33:49 51°20.677 2°41.827 279.5 12.7 279.1 22.5
2002-03-25 08:33:54 51°20.68 2°41.799 279.8 12.8 278.9 23.6
2002-03-25 08:33:59 51°20.683 2°41.771 280 12.8 279.6 24.2
2002-03-25 08:34:03 51°20.685 2°41.749 279.7 12.8 279.5 24.5
2002-03-25 08:34:09 51°20.689 2°41.715 279.7 12.8 279.2 24.6
2002-03-25 08:34:14 51°20.692 2°41.687 279.3 12.8 279.8 24.6
2002-03-25 08:34:20 51°20.695 2°41.654 279.7 12.8 279.4 24.7
2002-03-25 08:34:24 51°20.698 2°41.631 279.3 12.9 279.7 24.4
2002-03-25 08:34:30 51°20.701 2°41.598 279.8 12.9 279.6 23.9
2002-03-25 08:34:34 51°20.704 2°41.575 279.7 12.9 280.3 23.3
2002-03-25 08:34:40 51°20.708 2°41.541 280.3 12.9 280.5 25
2002-03-25 08:34:44 51°20.71 2°41.519 280 12.9 280.3 26
2002-03-25 08:34:49 51°20.714 2°41.491 280 12.8 280.5 26.6
2002-03-25 08:34:54 51°20.716 2°41.463 279.7 12.8 279.7 27.2
2002-03-25 08:34:59 51°20.72 2°41.435 279.5 12.8 280.1 27.9
2002-03-25 08:35:04 51°20.723 2°41.407 279.5 12.8 279.8 28.2
2002-03-25 08:35:10 51°20.726 2°41.373 279.2 12.9 279.8 28.6
2002-03-25 08:35:15 51°20.729 2°41.345 279.3 12.9 279.5 28.8
2002-03-25 08:35:19 51°20.732 2°41.323 279.3 12.9 279.8 28.9
2002-03-25 08:35:24 51°20.735 2°41.295 279 12.9 279.8 28.8
2002-03-25 08:35:30 51°20.739 2°41.261 279.8 13 280.1 28.8
2002-03-25 08:35:34 51°20.741 2°41.238 279 13 280.3 28.7
2002-03-25 08:35:40 51°20.745 2°41.204 279.8 13 279.9 28.8
2002-03-25 08:35:44 51°20.748 2°41.182 279.5 13 280.4 28.6
2002-03-25 08:35:49 51°20.751 2°41.153 279.8 13 280.3 28.8
2002-03-25 08:35:54 51°20.754 2°41.125 280 13 280.1 28.5
2002-03-25 08:35:59 51°20.757 2°41.097 280 13 280.7 28.5
2002-03-25 08:36:04 51°20.76 2°41.068 280 13 280.4 28.6
2002-03-25 08:36:09 51°20.764 2°41.04 279.7 13 280.5 28.3
2002-03-25 08:36:14 51°20.766 2°41.012 278.5 13 278.7 28.5
2002-03-25 08:36:19 51°20.769 2°40.983 278 13 278.9 28.4
2002-03-25 08:36:24 51°20.771 2°40.955 276.7 12.9 276.9 28.3
2002-03-25 08:36:29 51°20.773 2°40.927 276.7 12.9 276.4 28.3
2002-03-25 08:36:34 51°20.775 2°40.898 276.2 12.9 275.9 28.1
2002-03-25 08:36:39 51°20.776 2°40.87 275.5 12.9 275.5 28
2002-03-25 08:36:43 51°20.777 2°40.847 275.7 12.9 275.3 28.2
2002-03-25 08:36:49 51°20.779 2°40.812 276 12.9 275.8 27.8
2002-03-25 08:36:55 51°20.781 2°40.778 276 12.9 275.6 26.9
2002-03-25 08:37:00 51°20.783 2°40.75 276.3 13 276 26.4
2002-03-25 08:37:04 51°20.785 2°40.727 276.3 13 275.9 26.9
2002-03-25 08:37:09 51°20.787 2°40.698 277 13 276.6 27.5
2002-03-25 08:37:14 51°20.789 2°40.67 276.5 13 276 27.7
2002-03-25 08:37:19 51°20.791 2°40.641 276.7 13 276.5 28
2002-03-25 08:37:24 51°20.793 2°40.612 276.2 13 276.4 28.3
2002-03-25 08:37:30 51°20.796 2°40.578 277 13 276.3 28.5
2002-03-25 08:37:35 51°20.797 2°40.55 276.2 13 275.7 28.7
2002-03-25 08:37:39 51°20.799 2°40.527 276.8 13 276.3 28.7
2002-03-25 08:37:44 51°20.8 2°40.498 276.2 13 275.5 29
2002-03-25 08:37:50 51°20.803 2°40.464 276.5 13 276.2 29
2002-03-25 08:37:55 51°20.805 2°40.435 276.7 13 276 28.9
2002-03-25 08:37:59 51°20.806 2°40.413 276.3 13 276 28.7
2002-03-25 08:38:05 51°20.809 2°40.378 277 13 276.5 27.9
2002-03-25 08:38:08 51°20.81 2°40.361 276.8 13 276.2 27.5
2002-03-25 08:38:14 51°20.813 2°40.326 277.3 13 276.6 27.5
2002-03-25 08:38:19 51°20.815 2°40.298 277 13 276.8 28
2002-03-25 08:38:24 51°20.817 2°40.269 276.8 13 276.4 28.4
2002-03-25 08:38:30 51°20.82 2°40.235 276.7 13 276.8 28.5
2002-03-25 08:38:34 51°20.821 2°40.212 276.3 13 276.2 28.6
2002-03-25 08:38:39 51°20.823 2°40.183 277 13 276.4 28.6
2002-03-25 08:38:45 51°20.824 2°40.149 276.2 13 275.5 28.4
2002-03-25 08:38:50 51°20.827 2°40.121 276.7 13.1 276.3 28.3
2002-03-25 08:38:54 51°20.828 2°40.098 276.5 13 276.1 28.4
2002-03-25 08:39:00 51°20.83 2°40.063 277 13.1 276.7 28.1
2002-03-25 08:39:05 51°20.832 2°40.035 277 13 276.3 28.2
2002-03-25 08:39:10 51°20.835 2°40.006 277 13 277 28.2
2002-03-25 08:39:15 51°20.836 2°39.977 277.2 13 276.5 28.1
2002-03-25 08:39:19 51°20.838 2°39.954 277.3 13 276.8 28.1
2002-03-25 08:39:24 51°20.84 2°39.926 276.7 13 276.3 28.1
2002-03-25 08:39:29 51°20.842 2°39.897 277 13.1 276.3 28.1
2002-03-25 08:39:35 51°20.845 2°39.862 277 13.1 276.6 28
2002-03-25 08:39:40 51°20.847 2°39.833 276.7 13.1 276 27.9
2002-03-25 08:39:45 51°20.849 2°39.804 276.8 13.1 276.3 28.2
2002-03-25 08:39:49 51°20.85 2°39.782 277.2 13.1 276.3 28.2
2002-03-25 08:39:54 51°20.853 2°39.753 276.8 13.1 276.7 27.9
2002-03-25 08:39:59 51°20.854 2°39.724 276.5 13 276.1 27.5
2002-03-25 08:40:04 51°20.856 2°39.695 276.3 13 276 27.3
2002-03-25 08:40:09 51°20.859 2°39.667 276.7 13.1 276.3 27.3
2002-03-25 08:40:15 51°20.861 2°39.632 276.7 13.1 275.8 27.4
2002-03-25 08:40:19 51°20.862 2°39.609 276.3 13 276.2 27.4
2002-03-25 08:40:24 51°20.864 2°39.58 276.7 13 275.9 27.3
2002-03-25 08:40:29 51°20.866 2°39.552 276.5 13 276.2 27.1
2002-03-25 08:40:34 51°20.868 2°39.523 277 13 276.1 27
2002-03-25 08:40:39 51°20.87 2°39.494 276.3 13 276.3 27
2002-03-25 08:40:44 51°20.872 2°39.465 277.2 13.1 276.7 26.9
2002-03-25 08:40:49 51°20.874 2°39.437 276.5 13 276.4 26.5
2002-03-25 08:40:54 51°20.876 2°39.408 276.8 13 276.2 27.1
2002-03-25 08:40:59 51°20.878 2°39.38 277 13 276.5 27.5
2002-03-25 08:41:05 51°20.881 2°39.345 276.7 13 276.3 27.3
2002-03-25 08:41:09 51°20.882 2°39.323 276.2 13 275.7 27.2
2002-03-25 08:41:15 51°20.884 2°39.288 276 13 275.8 26.8
2002-03-25 08:41:20 51°20.886 2°39.26 276.3 13 275.6 26.8
2002-03-25 08:41:25 51°20.888 2°39.231 276.8 13 276.2 27.5
2002-03-25 08:41:30 51°20.89 2°39.203 277.3 12.9 276.4 27.4
2002-03-25 08:41:35 51°20.892 2°39.174 276.8 12.9 276.6 27.6
2002-03-25 08:41:40 51°20.894 2°39.146 276.8 12.9 276.4 27.5
2002-03-25 08:41:45 51°20.896 2°39.118 276.7 12.9 276.4 27.4
2002-03-25 08:41:49 51°20.898 2°39.095 276.8 12.9 276.2 27.4
2002-03-25 08:41:54 51°20.9 2°39.067 276.7 12.9 276.5 27.2
2002-03-25 08:41:59 51°20.901 2°39.038 276.3 12.9 276 26.9
2002-03-25 08:42:04 51°20.904 2°39.01 276.3 12.9 276.1 26
2002-03-25 08:42:10 51°20.906 2°38.976 276.5 12.9 276 26.7
2002-03-25 08:42:15 51°20.907 2°38.948 276.5 12.9 275.8 27.3
2002-03-25 08:42:19 51°20.909 2°38.925 276.7 12.9 276.1 26.7
2002-03-25 08:42:25 51°20.912 2°38.891 277 12.9 276.3 25.9
2002-03-25 08:42:29 51°20.913 2°38.868 277 12.9 276.5 26.8
2002-03-25 08:42:34 51°20.915 2°38.84 276.7 12.9 276.3 27.1
2002-03-25 08:42:39 51°20.917 2°38.811 276.5 12.9 276.1 27.1
2002-03-25 08:42:44 51°20.919 2°38.783 276.7 12.9 276.3 26.9
2002-03-25 08:42:50 51°20.921 2°38.749 276.7 12.9 275.8 26.8
2002-03-25 08:42:55 51°20.923 2°38.721 276.3 12.9 275.8 26.3
2002-03-25 08:42:59 51°20.925 2°38.698 276.7 12.9 276.2 26.1
2002-03-25 08:43:04 51°20.927 2°38.67 277 12.9 276.4 26.9
2002-03-25 08:43:10 51°20.929 2°38.635 276.8 12.9 276.3 26.6
2002-03-25 08:43:15 51°20.931 2°38.607 277.2 12.9 276.3 26.6
2002-03-25 08:43:20 51°20.933 2°38.579 276.7 12.8 276.3 26.5
2002-03-25 08:43:25 51°20.935 2°38.551 276.5 12.8 276.2 26.5
2002-03-25 08:43:30 51°20.937 2°38.522 276.3 12.8 276 26.7
2002-03-25 08:43:35 51°20.939 2°38.494 276.7 12.9 276 25.9
2002-03-25 08:43:39 51°20.941 2°38.472 276.8 12.8 276.3 26.5
2002-03-25 08:43:44 51°20.942 2°38.443 276.7 12.8 276.1 26.5
2002-03-25 08:43:50 51°20.945 2°38.409 276.8 12.8 276.4 26.1
2002-03-25 08:43:55 51°20.947 2°38.381 276.7 12.8 275.9 25.8
2002-03-25 08:44:00 51°20.949 2°38.353 277 12.8 276.4 26.4
2002-03-25 08:44:04 51°20.95 2°38.331 277 12.8 276.6 26.2
2002-03-25 08:44:10 51°20.953 2°38.297 277.2 12.8 276.9 26.5
2002-03-25 08:44:15 51°20.954 2°38.269 276.5 12.7 276.3 25.9
2002-03-25 08:44:19 51°20.956 2°38.247 277.2 12.8 276.6 25.8
2002-03-25 08:44:24 51°20.958 2°38.219 276.3 12.8 276 26.3
2002-03-25 08:44:30 51°20.96 2°38.185 276.3 12.7 276 26
2002-03-25 08:44:35 51°20.962 2°38.157 276.7 12.8 276 26.3
2002-03-25 08:44:39 51°20.963 2°38.134 276.5 12.8 276.3 26.7
2002-03-25 08:44:44 51°20.965 2°38.106 276.5 12.8 275.8 26.6
2002-03-25 08:44:50 51°20.968 2°38.073 276.2 12.7 276.6 26.4
2002-03-25 08:44:55 51°20.969 2°38.045 276.2 12.7 275.1 26
2002-03-25 08:45:00 51°20.972 2°38.017 277.2 12.8 276.9 25.4
2002-03-25 08:45:04 51°20.972 2°37.994 276.3 12.8 275.3 26.2
2002-03-25 08:45:10 51°20.976 2°37.961 277.2 12.8 277.2 26.8
2002-03-25 08:45:15 51°20.977 2°37.933 276.3 12.7 275.6 26.5
2002-03-25 08:45:19 51°20.979 2°37.91 277.3 12.8 277.4 26.3
2002-03-25 08:45:24 51°20.981 2°37.882 277 12.8 276.4 25.7
2002-03-25 08:45:30 51°20.984 2°37.848 276.8 12.7 277.1 26.2
2002-03-25 08:45:35 51°20.986 2°37.821 277.2 12.7 277.1 26.8
2002-03-25 08:45:40 51°20.989 2°37.793 279.7 12.7 279.1 26.5
2002-03-25 08:45:46 51°20.996 2°37.761 285.3 12.7 283.8 26.8
2002-03-25 08:45:50 51°21.002 2°37.74 291 12.7 290 26.3
2002-03-25 08:45:55 51°21.011 2°37.716 296.8 12.7 295.3 26.6
2002-03-25 08:45:59 51°21.019 2°37.698 304.2 12.8 303.3 26.6
2002-03-25 08:46:04 51°21.031 2°37.677 310.7 12.8 309.8 26.6
2002-03-25 08:46:10 51°21.047 2°37.654 316.5 12.9 316 26.8
2002-03-25 08:46:15 51°21.062 2°37.638 323.5 13 321.5 26.9
2002-03-25 08:46:20 51°21.078 2°37.625 329.3 13.1 329 26.8
2002-03-25 08:46:24 51°21.092 2°37.617 336.3 13.2 335.6 27.3
2002-03-25 08:46:30 51°21.113 2°37.607 342.5 13.3 341.8 27.1
2002-03-25 08:46:35 51°21.132 2°37.602 349 13.3 346.9 27.3
2002-03-25 08:46:40 51°21.15 2°37.6 355.5 13.5 353.8 27.3
2002-03-25 08:46:44 51°21.165 2°37.6 358.5 13.6 357.7 27.3
2002-03-25 08:46:50 51°21.188 2°37.599 358.2 13.8 358.8 27.6
2002-03-25 08:46:55 51°21.207 2°37.597 357.7 13.9 358.2 27.2
2002-03-25 08:46:59 51°21.223 2°37.597 358.5 13.9 358.8 27.4
2002-03-25 08:47:04 51°21.242 2°37.596 358 14 358.5 27.3
2002-03-25 08:47:10 51°21.266 2°37.596 358.8 14 359 27.5
2002-03-25 08:47:15 51°21.285 2°37.595 359.3 14 359.2 27.3
2002-03-25 08:47:20 51°21.305 2°37.596 0.3 14.1 0.2 27.4
2002-03-25 08:47:24 51°21.32 2°37.596 359.2 14.1 359.7 27.3
2002-03-25 08:47:30 51°21.344 2°37.596   14.1   27.2
2002-03-25 08:47:35 51°21.363 2°37.595 359 14.1 359.6 27.3
2002-03-25 08:47:39 51°21.379 2°37.596 0.2 14.1 359.9 27.7
2002-03-25 08:47:44 51°21.399 2°37.595 358.7 14.1 359.5 27.7
2002-03-25 08:47:50 51°21.422 2°37.594 358.3 14.1 358.8 27.6
2002-03-25 08:47:55 51°21.442 2°37.593 358.3 14.1 358.6 28.1
2002-03-25 08:48:00 51°21.462 2°37.593 358.8 14.1 358.7 27.7
2002-03-25 08:48:05 51°21.481 2°37.592 358 14.1 358.6 28
2002-03-25 08:48:10 51°21.501 2°37.59 356.7 14 357.5 28
2002-03-25 08:48:15 51°21.52 2°37.589 356.3 14 356.9 28.1
2002-03-25 08:48:19 51°21.536 2°37.587 355.2 14 356 27.6
2002-03-25 08:48:24 51°21.555 2°37.584 354.3 14 355.1 27.3
2002-03-25 08:48:30 51°21.578 2°37.58 353.7 14 354.3 27.3
2002-03-25 08:48:35 51°21.598 2°37.576 352.3 14 353.2 28
2002-03-25 08:48:39 51°21.613 2°37.573 351.8 14 352.7 28.5
2002-03-25 08:48:44 51°21.632 2°37.569 351 14 352 29.1
2002-03-25 08:48:50 51°21.656 2°37.564 351.7 14 352.3 29.8
2002-03-25 08:48:55 51°21.675 2°37.561 353.2 14 352.8 30.1
2002-03-25 08:49:00 51°21.694 2°37.557 353.5 14 353.8 30.6
2002-03-25 08:49:04 51°21.71 2°37.554 352.3 14.1 353.6 31
2002-03-25 08:49:10 51°21.733 2°37.55 352.3 14 352.9 31.6
2002-03-25 08:49:15 51°21.752 2°37.546 352 14 352.7 31.9
2002-03-25 08:49:19 51°21.767 2°37.542 350.3 14 351.8 31.9
2002-03-25 08:49:24 51°21.787 2°37.538 351 14 351.9 31.8
2002-03-25 08:49:30 51°21.81 2°37.532 350.5 14 351.5 31.8
2002-03-25 08:49:35 51°21.829 2°37.529 351.2 14 351.9 32.6
2002-03-25 08:49:40 51°21.848 2°37.524 350.2 14 351.6 32.9
2002-03-25 08:49:45 51°21.868 2°37.52 351.3 14 352 33
2002-03-25 08:49:50 51°21.887 2°37.515 351.7 14 352.2 33
2002-03-25 08:49:55 51°21.906 2°37.512 352 14.1 352.8 32.7
2002-03-25 08:49:59 51°21.922 2°37.508 351.2 14 352.3 32.8
2002-03-25 08:50:04 51°21.941 2°37.504 352 14.1 352.6 32.7
2002-03-25 08:50:10 51°21.964 2°37.499 351.5 14.1 352.4 32.5
2002-03-25 08:50:15 51°21.984 2°37.496 352.7 14.1 353.1 32.7
2002-03-25 08:50:20 51°22.003 2°37.492 352.7 14.1 353.2 33.1
2002-03-25 08:50:25 51°22.023 2°37.489 352.8 14.1 353.7 33.1
2002-03-25 08:50:30 51°22.042 2°37.485 351.8 14.1 352.8 32.4
2002-03-25 08:50:35 51°22.061 2°37.481 351.3 14.1 352.9 32.2
2002-03-25 08:50:40 51°22.08 2°37.475 349.2 14 351 32
2002-03-25 08:50:44 51°22.096 2°37.472 349.8 14.1 350.9 31.8
2002-03-25 08:50:50 51°22.119 2°37.466 349.5 14 350.5 31.8
2002-03-25 08:50:55 51°22.138 2°37.461 350.2 14.1 351 31.7
2002-03-25 08:50:59 51°22.154 2°37.456 349 14.1 350.3 31.7
2002-03-25 08:51:04 51°22.173 2°37.452 349.7 14.1 350.8 31.9
2002-03-25 08:51:10 51°22.196 2°37.445 349.2 14.1 349.9 31.8
2002-03-25 08:51:15 51°22.216 2°37.441 349.8 14.1 351.1 32.3
2002-03-25 08:51:20 51°22.235 2°37.434 348 14.1 349.4 32.7
2002-03-25 08:51:24 51°22.25 2°37.431 350.3 14.1 351 32.6
2002-03-25 08:51:30 51°22.273 2°37.423 347.5 14.1 349.2 32.5
2002-03-25 08:51:35 51°22.293 2°37.42 349.8 14.1 350.3 32.4
2002-03-25 08:51:39 51°22.308 2°37.413 346.5 14.1 348.8 32.1
2002-03-25 08:51:44 51°22.327 2°37.408 349.3 14 349.6 32.3
2002-03-25 08:51:50 51°22.35 2°37.401 347.3 14 349.4 32.4
2002-03-25 08:51:55 51°22.369 2°37.396 348.5 14 348.9 32
2002-03-25 08:52:00 51°22.388 2°37.39 347.8 14 349.6 31.9
2002-03-25 08:52:05 51°22.407 2°37.383 347 14 348.1 31.8
2002-03-25 08:52:10 51°22.426 2°37.377 346.5 14 348.5 32.5
2002-03-25 08:52:15 51°22.444 2°37.367 342.5 13.9 345.2 32.3
2002-03-25 08:52:19 51°22.459 2°37.362 343 13.9 344.6 32.1
2002-03-25 08:52:24 51°22.477 2°37.35 338.3 13.8 340.7 31.6
2002-03-25 08:52:30 51°22.499 2°37.339 339.5 13.8 340.6 31.7
2002-03-25 08:52:35 51°22.516 2°37.325 334.5 13.7 336.4 31.4
2002-03-25 08:52:39 51°22.53 2°37.315 332.3 13.6 335.1 30.9
2002-03-25 08:52:44 51°22.546 2°37.3 327.8 13.5 332.3 30.9
2002-03-25 08:52:48 51°22.558 2°37.287 326.7 13.5 328.6 31
2002-03-25 08:52:54 51°22.577 2°37.268 323.5 13.4 327.7 31
2002-03-25 08:52:59 51°22.592 2°37.25 322.8 13.4 324.3 30.9
2002-03-25 08:53:04 51°22.607 2°37.234 321 13.4 324.7 30.3
2002-03-25 08:53:09 51°22.621 2°37.214 318.8 13.3 320.8 30.3
2002-03-25 08:53:14 51°22.636 2°37.196 318.2 13.3 321.1 30.8
2002-03-25 08:53:19 51°22.648 2°37.175 315.7 13.3 317.9 31.2
2002-03-25 08:53:25 51°22.666 2°37.153 317.3 13.3 319 30.7
2002-03-25 08:53:29 51°22.676 2°37.135 312.8 13.3 315.9 31.4
2002-03-25 08:53:34 51°22.689 2°37.115 312.7 13.3 315.2 30.9
2002-03-25 08:53:39 51°22.701 2°37.093 309.2 13.2 312.2 30.7
2002-03-25 08:53:45 51°22.716 2°37.067 310.2 13.2 312.3 30.6
2002-03-25 08:53:49 51°22.725 2°37.049 307.8 13.2 310.4 30.5
2002-03-25 08:53:54 51°22.736 2°37.027 308.3 13.1 309.7 30
2002-03-25 08:53:59 51°22.748 2°37.004 306.5 13.1 308.8 30.5
2002-03-25 08:54:04 51°22.758 2°36.98 304.2 13 306.9 30.2
2002-03-25 08:54:09 51°22.768 2°36.956 301.2 13 304 30.3
2002-03-25 08:54:14 51°22.778 2°36.932 300.3 13 302.5 30.1
2002-03-25 08:54:20 51°22.788 2°36.902 297.8 13 300.1 30.4
2002-03-25 08:54:25 51°22.797 2°36.877 297.3 13 299.5 30.9
2002-03-25 08:54:29 51°22.804 2°36.856 296 13 297.8 31
2002-03-25 08:54:34 51°22.812 2°36.83 295.7 13 297 31.4
2002-03-25 08:54:39 51°22.82 2°36.805 294.7 13 296.6 31.2
2002-03-25 08:54:45 51°22.83 2°36.774 295 13 295.7 30.2
2002-03-25 08:54:49 51°22.836 2°36.753 295.3 13 296.2 28.1
2002-03-25 08:54:54 51°22.844 2°36.727 296.3 13 296.5 28.8
2002-03-25 08:54:59 51°22.853 2°36.702 297.3 13.1 298 29.4
2002-03-25 08:55:04 51°22.861 2°36.676 297.8 13 297.5 30.2
2002-03-25 08:55:09 51°22.87 2°36.651 297.3 13.1 298.6 30.4
2002-03-25 08:55:14 51°22.878 2°36.624 295.8 13 296.8 30.4
2002-03-25 08:55:19 51°22.886 2°36.599 295.7 13 296.9 30.5
2002-03-25 08:55:24 51°22.893 2°36.573 294.7 13 295.4 29.5
2002-03-25 08:55:29 51°22.902 2°36.547 295 13 296 27.7
2002-03-25 08:55:34 51°22.909 2°36.52 294.2 13 294.7 29
2002-03-25 08:55:39 51°22.917 2°36.495 294.3 13 294.9 29.6
2002-03-25 08:55:44 51°22.924 2°36.468 292.2 13 293.8 29.4
2002-03-25 08:55:48 51°22.929 2°36.447 291.7 13 292.8 28.9
2002-03-25 08:55:54 51°22.937 2°36.414 289.8 13 291.4 28.6
2002-03-25 08:56:00 51°22.945 2°36.382 290 13 290.9 26.8
2002-03-25 08:56:04 51°22.949 2°36.36 288.7 12.9 289.4 26.8
2002-03-25 08:56:09 51°22.955 2°36.334 288.3 12.9 289.3 27.6
2002-03-25 08:56:14 51°22.96 2°36.306 286 12.9 287.8 27.3
2002-03-25 08:56:19 51°22.965 2°36.279 285.2 12.9 286.4 27.1
2002-03-25 08:56:24 51°22.969 2°36.251 283.5 12.8 285 25.9
2002-03-25 08:56:29 51°22.974 2°36.224 283.3 12.9 284 26.1
2002-03-25 08:56:35 51°22.978 2°36.19 282.8 12.9 282.9 26.5
2002-03-25 08:56:39 51°22.981 2°36.168 282.5 12.9 282.9 26
2002-03-25 08:56:44 51°22.985 2°36.14 280.8 12.9 281.9 26.1
2002-03-25 08:56:49 51°22.988 2°36.112 280 12.9 280.9 26.1
2002-03-25 08:56:54 51°22.99 2°36.084 279 12.9 279.1 25.9
2002-03-25 08:56:59 51°22.993 2°36.056 278.5 12.9 279.5 25.5
2002-03-25 08:57:04 51°22.995 2°36.027 277.8 12.8 278 24.5
2002-03-25 08:57:09 51°22.998 2°35.999 278 12.8 278.6 25.2
2002-03-25 08:57:14 51°23 2°35.971 277.7 12.8 277.5 25.6
2002-03-25 08:57:19 51°23.003 2°35.943 276.8 12.9 277.8 25.2
2002-03-25 08:57:24 51°23.005 2°35.914 276.5 12.9 276.9 25.3
2002-03-25 08:57:29 51°23.007 2°35.886 275.8 12.9 276.4 24.4
2002-03-25 08:57:35 51°23.009 2°35.852 275.3 12.8 275.8 23
2002-03-25 08:57:40 51°23.01 2°35.824 275.3 12.8 275.5 24
2002-03-25 08:57:45 51°23.012 2°35.796 275.2 12.8 275.5 24.5
2002-03-25 08:57:49 51°23.013 2°35.773 275.3 12.8 275.5 22.9
2002-03-25 08:57:55 51°23.016 2°35.739 275.5 12.8 275.5 25.6
2002-03-25 08:57:59 51°23.017 2°35.717 275.2 12.8 275.9 27.1
2002-03-25 08:58:05 51°23.019 2°35.683 274.3 12.8 274.8 27
2002-03-25 08:58:09 51°23.02 2°35.66 274.5 12.8 275.1 26.3
2002-03-25 08:58:14 51°23.021 2°35.631 274.5 12.9 274.3 23.5
2002-03-25 08:58:20 51°23.023 2°35.598 274.2 12.8 274.8 26.3
2002-03-25 08:58:24 51°23.024 2°35.575 274.3 12.8 274.3 28.4
2002-03-25 08:58:30 51°23.026 2°35.541 273.8 12.8 274.6 27.7
2002-03-25 08:58:34 51°23.027 2°35.518 274.3 12.8 274 26.9
2002-03-25 08:58:39 51°23.028 2°35.49 274.5 12.8 274.7 26.2
2002-03-25 08:58:45 51°23.03 2°35.456 273.7 12.8 274.1 23.8
2002-03-25 08:58:50 51°23.032 2°35.428 274.5 12.8 274.4 27.9
2002-03-25 08:58:55 51°23.033 2°35.4 274 12.8 274.5 28.4
2002-03-25 08:59:00 51°23.034 2°35.372 274.2 12.8 275.1 28.6
2002-03-25 08:59:05 51°23.035 2°35.344 274.2 12.8 274.7 28.7
2002-03-25 08:59:10 51°23.038 2°35.315 274.7 12.8 275.5 28.6
2002-03-25 08:59:14 51°23.039 2°35.292 274.8 12.8 275.1 29.3
2002-03-25 08:59:19 51°23.041 2°35.264 275.5 12.9 276.1 29.9
2002-03-25 08:59:26 51°23.043 2°35.224 274.8 12.9 275.1 30.3
2002-03-25 08:59:29 51°23.045 2°35.207 275.2 12.9 276.1 30.6
2002-03-25 08:59:34 51°23.046 2°35.179 275.3 12.9 275.5 30.5
2002-03-25 08:59:39 51°23.048 2°35.151 275 12.8 276 30.2
2002-03-25 08:59:44 51°23.05 2°35.122 275 12.8 275.4 30.9
2002-03-25 08:59:50 51°23.052 2°35.088 274.7 12.8 275.6 31.7
2002-03-25 08:59:55 51°23.053 2°35.06 274.2 12.8 275.3 32.1
2002-03-25 09:00:00 51°23.055 2°35.032 274.7 12.8 275.5 32.7
2002-03-25 09:00:04 51°23.056 2°35.01 274.8 12.8 275.4 33.1
2002-03-25 09:00:10 51°23.058 2°34.976 274.3 12.8 275.6 33.6
2002-03-25 09:00:15 51°23.06 2°34.948 274.5 12.8 275.4 34.1
2002-03-25 09:00:19 51°23.061 2°34.925 274.3 12.8 275.2 34.4
2002-03-25 09:00:24 51°23.063 2°34.897 274.7 12.8 275.3 34.8
2002-03-25 09:00:30 51°23.065 2°34.863 274.8 12.8 275.8 35.1
2002-03-25 09:00:35 51°23.067 2°34.835 274.7 12.8 275.1 35.1
2002-03-25 09:00:40 51°23.069 2°34.806 274.8 12.8 275.9 34.8
2002-03-25 09:00:45 51°23.071 2°34.778 275.2 12.8 275.8 34.7
2002-03-25 09:00:50 51°23.072 2°34.75 275.2 12.8 275.8 34.4
2002-03-25 09:00:55 51°23.074 2°34.722 275 12.8 275.9 34
2002-03-25 09:00:59 51°23.076 2°34.699 274.7 12.8 275.6 33
2002-03-25 09:01:04 51°23.077 2°34.671 274.5 12.8 275.5 32.9
2002-03-25 09:01:10 51°23.079 2°34.637 275 12.8 275.8 33.1
2002-03-25 09:01:15 51°23.081 2°34.609 274.5 12.8 275.2 33.2
2002-03-25 09:01:20 51°23.083 2°34.581 274.5 12.8 275.6 34.4
2002-03-25 09:01:24 51°23.084 2°34.558 274.7 12.8 274.9 35.7
2002-03-25 09:01:29 51°23.086 2°34.53 274.7 12.8 275.4 35.2
2002-03-25 09:01:35 51°23.088 2°34.496 274.7 12.8 275.3 35
2002-03-25 09:01:40 51°23.09 2°34.467 274.7 12.9 275.4 35.1
2002-03-25 09:01:44 51°23.092 2°34.445 274.8 12.9 275.8 35.3
2002-03-25 09:01:49 51°23.093 2°34.416 274.8 12.9 275.2 35.4